sensor_id;sensor_type;location;lat;lon;timestamp;temperature;humidity
10980;DHT22;5543;51.734;8.744;2022-07-23T00:01:02;16.10;99.90
10980;DHT22;5543;51.734;8.744;2022-07-23T00:03:31;16.10;99.90
10980;DHT22;5543;51.734;8.744;2022-07-23T00:05:59;16.10;99.90
10980;DHT22;5543;51.734;8.744;2022-07-23T00:08:28;16.10;99.90
10980;DHT22;5543;51.734;8.744;2022-07-23T00:10:57;16.10;99.90
10980;DHT22;5543;51.734;8.744;2022-07-23T00:13:25;16.10;99.90
10980;DHT22;5543;51.734;8.744;2022-07-23T00:15:54;16.10;99.90
10980;DHT22;5543;51.734;8.744;2022-07-23T00:18:22;16.10;99.90
10980;DHT22;5543;51.734;8.744;2022-07-23T00:20:52;16.10;99.90
10980;DHT22;5543;51.734;8.744;2022-07-23T00:23:20;16.00;99.90
10980;DHT22;5543;51.734;8.744;2022-07-23T00:25:48;16.00;99.90
10980;DHT22;5543;51.734;8.744;2022-07-23T00:28:18;16.00;99.90
10980;DHT22;5543;51.734;8.744;2022-07-23T00:30:46;16.00;99.90
10980;DHT22;5543;51.734;8.744;2022-07-23T00:33:14;16.00;99.90
10980;DHT22;5543;51.734;8.744;2022-07-23T00:35:43;16.00;99.90
10980;DHT22;5543;51.734;8.744;2022-07-23T00:38:11;16.00;99.90
10980;DHT22;5543;51.734;8.744;2022-07-23T00:40:40;16.00;99.90
10980;DHT22;5543;51.734;8.744;2022-07-23T00:43:08;16.00;99.90
10980;DHT22;5543;51.734;8.744;2022-07-23T00:45:37;16.00;99.90
10980;DHT22;5543;51.734;8.744;2022-07-23T00:48:05;16.10;99.90
10980;DHT22;5543;51.734;8.744;2022-07-23T00:50:34;16.10;99.90
10980;DHT22;5543;51.734;8.744;2022-07-23T00:53:02;16.10;99.90
10980;DHT22;5543;51.734;8.744;2022-07-23T00:55:30;16.10;99.90
10980;DHT22;5543;51.734;8.744;2022-07-23T00:57:58;16.10;99.90
10980;DHT22;5543;51.734;8.744;2022-07-23T01:00:27;16.10;99.90
10980;DHT22;5543;51.734;8.744;2022-07-23T01:02:57;16.00;99.90
10980;DHT22;5543;51.734;8.744;2022-07-23T01:05:25;16.10;99.90
10980;DHT22;5543;51.734;8.744;2022-07-23T01:07:53;16.10;99.90
10980;DHT22;5543;51.734;8.744;2022-07-23T01:10:23;16.10;99.90
10980;DHT22;5543;51.734;8.744;2022-07-23T01:13:02;16.10;99.90
10980;DHT22;5543;51.734;8.744;2022-07-23T01:15:31;16.20;99.90
10980;DHT22;5543;51.734;8.744;2022-07-23T01:18:02;16.10;99.90
10980;DHT22;5543;51.734;8.744;2022-07-23T01:20:30;16.10;99.90
10980;DHT22;5543;51.734;8.744;2022-07-23T01:23:00;16.20;99.90
10980;DHT22;5543;51.734;8.744;2022-07-23T01:25:28;16.20;99.90
10980;DHT22;5543;51.734;8.744;2022-07-23T01:27:56;16.20;99.90
10980;DHT22;5543;51.734;8.744;2022-07-23T01:30:24;16.20;99.90
10980;DHT22;5543;51.734;8.744;2022-07-23T01:32:53;16.20;99.90
10980;DHT22;5543;51.734;8.744;2022-07-23T01:35:21;16.20;99.90
10980;DHT22;5543;51.734;8.744;2022-07-23T01:37:49;16.20;99.90
10980;DHT22;5543;51.734;8.744;2022-07-23T01:40:18;16.20;99.90
10980;DHT22;5543;51.734;8.744;2022-07-23T01:42:48;16.20;99.90
10980;DHT22;5543;51.734;8.744;2022-07-23T01:45:16;16.20;99.90
10980;DHT22;5543;51.734;8.744;2022-07-23T01:47:44;16.20;99.90
10980;DHT22;5543;51.734;8.744;2022-07-23T01:50:13;16.10;99.90
10980;DHT22;5543;51.734;8.744;2022-07-23T01:52:41;16.10;99.90
10980;DHT22;5543;51.734;8.744;2022-07-23T01:55:09;16.20;99.90
10980;DHT22;5543;51.734;8.744;2022-07-23T01:57:46;16.10;99.90
10980;DHT22;5543;51.734;8.744;2022-07-23T02:00:14;16.10;99.90
10980;DHT22;5543;51.734;8.744;2022-07-23T02:02:42;16.00;99.90
10980;DHT22;5543;51.734;8.744;2022-07-23T02:05:10;16.00;99.90
10980;DHT22;5543;51.734;8.744;2022-07-23T02:07:39;16.00;99.90
10980;DHT22;5543;51.734;8.744;2022-07-23T02:10:08;16.00;99.90
10980;DHT22;5543;51.734;8.744;2022-07-23T02:12:36;15.90;99.90
10980;DHT22;5543;51.734;8.744;2022-07-23T02:15:07;15.90;99.90
10980;DHT22;5543;51.734;8.744;2022-07-23T02:17:36;15.80;99.90
10980;DHT22;5543;51.734;8.744;2022-07-23T02:20:05;15.80;99.90
10980;DHT22;5543;51.734;8.744;2022-07-23T02:22:33;15.80;99.90
10980;DHT22;5543;51.734;8.744;2022-07-23T02:25:02;15.70;99.90
10980;DHT22;5543;51.734;8.744;2022-07-23T02:27:30;15.80;99.90
10980;DHT22;5543;51.734;8.744;2022-07-23T02:29:58;15.80;99.90
10980;DHT22;5543;51.734;8.744;2022-07-23T02:32:28;15.80;99.90
10980;DHT22;5543;51.734;8.744;2022-07-23T02:34:56;15.70;99.90
10980;DHT22;5543;51.734;8.744;2022-07-23T02:37:24;15.70;99.90
10980;DHT22;5543;51.734;8.744;2022-07-23T02:39:52;15.60;99.90
10980;DHT22;5543;51.734;8.744;2022-07-23T02:42:20;15.60;99.90
10980;DHT22;5543;51.734;8.744;2022-07-23T02:44:50;15.60;99.90
10980;DHT22;5543;51.734;8.744;2022-07-23T02:47:18;15.60;99.90
10980;DHT22;5543;51.734;8.744;2022-07-23T02:49:48;15.60;99.90
10980;DHT22;5543;51.734;8.744;2022-07-23T02:52:16;15.60;99.90
10980;DHT22;5543;51.734;8.744;2022-07-23T02:54:44;15.60;99.90
10980;DHT22;5543;51.734;8.744;2022-07-23T02:57:12;15.60;99.90
10980;DHT22;5543;51.734;8.744;2022-07-23T02:59:40;15.60;99.90
10980;DHT22;5543;51.734;8.744;2022-07-23T03:02:08;15.60;99.90
10980;DHT22;5543;51.734;8.744;2022-07-23T03:04:36;15.60;99.90
10980;DHT22;5543;51.734;8.744;2022-07-23T03:07:06;15.60;99.90
10980;DHT22;5543;51.734;8.744;2022-07-23T03:09:34;15.50;99.90
10980;DHT22;5543;51.734;8.744;2022-07-23T03:12:03;15.50;99.90
10980;DHT22;5543;51.734;8.744;2022-07-23T03:14:39;15.50;99.90
10980;DHT22;5543;51.734;8.744;2022-07-23T03:17:08;15.50;99.90
10980;DHT22;5543;51.734;8.744;2022-07-23T03:19:36;15.50;99.90
10980;DHT22;5543;51.734;8.744;2022-07-23T03:22:07;15.50;99.90
10980;DHT22;5543;51.734;8.744;2022-07-23T03:24:35;15.50;99.90
10980;DHT22;5543;51.734;8.744;2022-07-23T03:27:22;15.60;99.90
10980;DHT22;5543;51.734;8.744;2022-07-23T03:29:50;15.60;99.90
10980;DHT22;5543;51.734;8.744;2022-07-23T03:32:19;15.60;99.90
10980;DHT22;5543;51.734;8.744;2022-07-23T03:34:47;15.60;99.90
10980;DHT22;5543;51.734;8.744;2022-07-23T03:37:17;15.60;99.90
10980;DHT22;5543;51.734;8.744;2022-07-23T03:39:45;15.50;99.90
10980;DHT22;5543;51.734;8.744;2022-07-23T03:42:13;15.50;99.90
10980;DHT22;5543;51.734;8.744;2022-07-23T03:44:41;15.40;99.90
10980;DHT22;5543;51.734;8.744;2022-07-23T03:47:09;15.40;99.90
10980;DHT22;5543;51.734;8.744;2022-07-23T03:49:37;15.40;99.90
10980;DHT22;5543;51.734;8.744;2022-07-23T03:52:06;15.30;99.90
10980;DHT22;5543;51.734;8.744;2022-07-23T03:54:35;15.30;99.90
10980;DHT22;5543;51.734;8.744;2022-07-23T03:57:03;15.20;99.90
10980;DHT22;5543;51.734;8.744;2022-07-23T03:59:32;15.20;99.90
10980;DHT22;5543;51.734;8.744;2022-07-23T04:02:00;15.20;99.90
10980;DHT22;5543;51.734;8.744;2022-07-23T04:04:28;15.20;99.90
10980;DHT22;5543;51.734;8.744;2022-07-23T04:06:57;15.20;99.90
10980;DHT22;5543;51.734;8.744;2022-07-23T04:09:25;15.10;99.90
10980;DHT22;5543;51.734;8.744;2022-07-23T04:11:54;15.10;99.90
10980;DHT22;5543;51.734;8.744;2022-07-23T04:14:22;15.10;99.90
10980;DHT22;5543;51.734;8.744;2022-07-23T04:16:50;15.10;99.90
10980;DHT22;5543;51.734;8.744;2022-07-23T04:19:18;15.00;99.90
10980;DHT22;5543;51.734;8.744;2022-07-23T04:21:47;15.00;99.90
10980;DHT22;5543;51.734;8.744;2022-07-23T04:24:15;14.90;99.90
10980;DHT22;5543;51.734;8.744;2022-07-23T04:26:43;14.90;99.90
10980;DHT22;5543;51.734;8.744;2022-07-23T04:29:12;14.90;99.90
10980;DHT22;5543;51.734;8.744;2022-07-23T04:31:41;14.90;99.90
10980;DHT22;5543;51.734;8.744;2022-07-23T04:34:09;14.90;99.90
10980;DHT22;5543;51.734;8.744;2022-07-23T04:36:37;14.90;99.90
10980;DHT22;5543;51.734;8.744;2022-07-23T04:39:05;14.90;99.90
10980;DHT22;5543;51.734;8.744;2022-07-23T04:41:33;14.80;99.90
10980;DHT22;5543;51.734;8.744;2022-07-23T04:44:02;14.80;99.90
10980;DHT22;5543;51.734;8.744;2022-07-23T04:46:32;14.80;99.90
10980;DHT22;5543;51.734;8.744;2022-07-23T04:49:00;14.90;99.90
10980;DHT22;5543;51.734;8.744;2022-07-23T04:51:29;14.90;99.90
10980;DHT22;5543;51.734;8.744;2022-07-23T04:53:57;14.90;99.90
10980;DHT22;5543;51.734;8.744;2022-07-23T04:56:25;14.90;99.90
10980;DHT22;5543;51.734;8.744;2022-07-23T04:58:54;14.90;99.90
10980;DHT22;5543;51.734;8.744;2022-07-23T05:01:22;14.80;99.90
10980;DHT22;5543;51.734;8.744;2022-07-23T05:03:52;15.00;99.90
10980;DHT22;5543;51.734;8.744;2022-07-23T05:06:20;15.00;99.90
10980;DHT22;5543;51.734;8.744;2022-07-23T05:08:48;15.10;99.90
10980;DHT22;5543;51.734;8.744;2022-07-23T05:11:16;15.10;99.90
10980;DHT22;5543;51.734;8.744;2022-07-23T05:13:50;15.10;99.90
10980;DHT22;5543;51.734;8.744;2022-07-23T05:16:19;15.10;99.90
10980;DHT22;5543;51.734;8.744;2022-07-23T05:18:47;15.20;99.90
10980;DHT22;5543;51.734;8.744;2022-07-23T05:21:16;15.20;99.90
10980;DHT22;5543;51.734;8.744;2022-07-23T05:23:45;15.30;99.90
10980;DHT22;5543;51.734;8.744;2022-07-23T05:26:13;15.30;99.90
10980;DHT22;5543;51.734;8.744;2022-07-23T05:28:41;15.40;99.90
10980;DHT22;5543;51.734;8.744;2022-07-23T05:31:15;15.40;99.90
10980;DHT22;5543;51.734;8.744;2022-07-23T05:33:44;15.50;99.90
10980;DHT22;5543;51.734;8.744;2022-07-23T05:36:12;15.50;99.90
10980;DHT22;5543;51.734;8.744;2022-07-23T05:38:42;15.50;99.90
10980;DHT22;5543;51.734;8.744;2022-07-23T05:41:10;15.60;99.90
10980;DHT22;5543;51.734;8.744;2022-07-23T05:43:38;15.60;99.90
10980;DHT22;5543;51.734;8.744;2022-07-23T05:46:06;15.60;99.90
10980;DHT22;5543;51.734;8.744;2022-07-23T05:48:34;15.70;99.90
10980;DHT22;5543;51.734;8.744;2022-07-23T05:51:03;15.70;99.90
10980;DHT22;5543;51.734;8.744;2022-07-23T05:53:33;15.80;99.90
10980;DHT22;5543;51.734;8.744;2022-07-23T05:56:03;15.90;99.90
10980;DHT22;5543;51.734;8.744;2022-07-23T05:58:31;16.00;99.90
10980;DHT22;5543;51.734;8.744;2022-07-23T06:00:59;16.10;99.90
10980;DHT22;5543;51.734;8.744;2022-07-23T06:03:28;16.20;99.90
10980;DHT22;5543;51.734;8.744;2022-07-23T06:05:56;16.40;99.90
10980;DHT22;5543;51.734;8.744;2022-07-23T06:08:24;16.60;99.90
10980;DHT22;5543;51.734;8.744;2022-07-23T06:10:52;16.80;99.90
10980;DHT22;5543;51.734;8.744;2022-07-23T06:13:22;16.90;99.90
10980;DHT22;5543;51.734;8.744;2022-07-23T06:15:50;17.00;99.90
10980;DHT22;5543;51.734;8.744;2022-07-23T06:18:18;17.10;99.90
10980;DHT22;5543;51.734;8.744;2022-07-23T06:20:46;17.10;99.90
10980;DHT22;5543;51.734;8.744;2022-07-23T06:23:17;17.10;99.90
10980;DHT22;5543;51.734;8.744;2022-07-23T06:25:45;17.10;99.90
10980;DHT22;5543;51.734;8.744;2022-07-23T06:28:13;17.10;99.90
10980;DHT22;5543;51.734;8.744;2022-07-23T06:30:43;17.00;99.90
10980;DHT22;5543;51.734;8.744;2022-07-23T06:33:11;16.90;99.90
10980;DHT22;5543;51.734;8.744;2022-07-23T06:35:40;16.80;99.90
10980;DHT22;5543;51.734;8.744;2022-07-23T06:38:08;16.70;99.90
10980;DHT22;5543;51.734;8.744;2022-07-23T06:40:36;16.60;99.90
10980;DHT22;5543;51.734;8.744;2022-07-23T06:43:04;16.70;99.90
10980;DHT22;5543;51.734;8.744;2022-07-23T06:45:33;16.80;99.90
10980;DHT22;5543;51.734;8.744;2022-07-23T06:48:02;16.90;99.90
10980;DHT22;5543;51.734;8.744;2022-07-23T06:50:30;17.00;99.90
10980;DHT22;5543;51.734;8.744;2022-07-23T06:52:59;17.10;99.90
10980;DHT22;5543;51.734;8.744;2022-07-23T06:55:27;17.20;99.90
10980;DHT22;5543;51.734;8.744;2022-07-23T06:57:55;17.20;99.90
10980;DHT22;5543;51.734;8.744;2022-07-23T07:00:23;17.30;99.90
10980;DHT22;5543;51.734;8.744;2022-07-23T07:02:53;17.20;99.90
10980;DHT22;5543;51.734;8.744;2022-07-23T07:05:23;17.30;99.90
10980;DHT22;5543;51.734;8.744;2022-07-23T07:07:54;17.40;99.90
10980;DHT22;5543;51.734;8.744;2022-07-23T07:10:22;17.50;99.90
10980;DHT22;5543;51.734;8.744;2022-07-23T07:12:50;17.70;99.90
10980;DHT22;5543;51.734;8.744;2022-07-23T07:15:18;17.80;99.90
10980;DHT22;5543;51.734;8.744;2022-07-23T07:17:47;17.90;99.90
10980;DHT22;5543;51.734;8.744;2022-07-23T07:20:15;17.80;99.90
10980;DHT22;5543;51.734;8.744;2022-07-23T07:22:44;17.80;99.90
10980;DHT22;5543;51.734;8.744;2022-07-23T07:25:13;18.00;99.90
10980;DHT22;5543;51.734;8.744;2022-07-23T07:27:41;18.10;99.90
10980;DHT22;5543;51.734;8.744;2022-07-23T07:30:11;18.10;99.90
10980;DHT22;5543;51.734;8.744;2022-07-23T07:32:40;18.10;99.90
10980;DHT22;5543;51.734;8.744;2022-07-23T07:35:25;18.10;99.90
10980;DHT22;5543;51.734;8.744;2022-07-23T07:37:55;18.30;99.90
10980;DHT22;5543;51.734;8.744;2022-07-23T07:40:23;18.40;99.90
10980;DHT22;5543;51.734;8.744;2022-07-23T07:42:59;18.60;99.90
10980;DHT22;5543;51.734;8.744;2022-07-23T07:45:28;18.80;99.90
10980;DHT22;5543;51.734;8.744;2022-07-23T07:47:56;18.90;99.90
10980;DHT22;5543;51.734;8.744;2022-07-23T07:50:25;19.00;99.90
10980;DHT22;5543;51.734;8.744;2022-07-23T07:52:54;19.00;99.90
10980;DHT22;5543;51.734;8.744;2022-07-23T07:55:23;19.00;99.90
10980;DHT22;5543;51.734;8.744;2022-07-23T07:57:51;19.00;99.90
10980;DHT22;5543;51.734;8.744;2022-07-23T08:00:19;19.00;99.90
10980;DHT22;5543;51.734;8.744;2022-07-23T08:02:49;19.00;99.90
10980;DHT22;5543;51.734;8.744;2022-07-23T08:05:20;18.90;99.90
10980;DHT22;5543;51.734;8.744;2022-07-23T08:07:56;18.80;99.90
10980;DHT22;5543;51.734;8.744;2022-07-23T08:10:25;18.80;99.90
10980;DHT22;5543;51.734;8.744;2022-07-23T08:12:56;19.00;99.90
10980;DHT22;5543;51.734;8.744;2022-07-23T08:15:25;19.40;99.90
10980;DHT22;5543;51.734;8.744;2022-07-23T08:17:55;19.70;99.90
10980;DHT22;5543;51.734;8.744;2022-07-23T08:20:24;19.90;99.90
10980;DHT22;5543;51.734;8.744;2022-07-23T08:22:58;20.10;99.90
10980;DHT22;5543;51.734;8.744;2022-07-23T08:25:29;20.00;99.90
10980;DHT22;5543;51.734;8.744;2022-07-23T08:27:59;20.30;99.90
10980;DHT22;5543;51.734;8.744;2022-07-23T08:30:29;20.80;99.90
10980;DHT22;5543;51.734;8.744;2022-07-23T08:32:58;21.30;99.90
10980;DHT22;5543;51.734;8.744;2022-07-23T08:35:30;21.50;99.90
10980;DHT22;5543;51.734;8.744;2022-07-23T08:38:02;21.50;99.90
10980;DHT22;5543;51.734;8.744;2022-07-23T08:40:32;21.40;99.90
10980;DHT22;5543;51.734;8.744;2022-07-23T08:43:08;21.40;99.90
10980;DHT22;5543;51.734;8.744;2022-07-23T08:45:38;21.70;99.90
10980;DHT22;5543;51.734;8.744;2022-07-23T08:48:08;22.10;99.90
10980;DHT22;5543;51.734;8.744;2022-07-23T08:50:42;22.00;99.90
10980;DHT22;5543;51.734;8.744;2022-07-23T08:53:13;21.90;99.90
10980;DHT22;5543;51.734;8.744;2022-07-23T08:55:44;21.80;99.90
10980;DHT22;5543;51.734;8.744;2022-07-23T08:58:13;22.10;99.90
10980;DHT22;5543;51.734;8.744;2022-07-23T09:00:41;22.70;99.90
10980;DHT22;5543;51.734;8.744;2022-07-23T09:03:16;23.20;99.90
10980;DHT22;5543;51.734;8.744;2022-07-23T09:05:44;23.60;99.90
10980;DHT22;5543;51.734;8.744;2022-07-23T09:08:15;23.90;99.50
10980;DHT22;5543;51.734;8.744;2022-07-23T09:10:47;23.80;99.30
10980;DHT22;5543;51.734;8.744;2022-07-23T09:13:33;23.20;99.80
10980;DHT22;5543;51.734;8.744;2022-07-23T09:16:04;23.10;99.90
10980;DHT22;5543;51.734;8.744;2022-07-23T09:18:36;23.00;99.90
10980;DHT22;5543;51.734;8.744;2022-07-23T09:21:17;22.90;99.40
10980;DHT22;5543;51.734;8.744;2022-07-23T09:23:49;22.70;99.90
10980;DHT22;5543;51.734;8.744;2022-07-23T09:26:23;22.80;99.90
10980;DHT22;5543;51.734;8.744;2022-07-23T09:28:53;23.00;99.60
10980;DHT22;5543;51.734;8.744;2022-07-23T09:31:23;23.50;99.80
10980;DHT22;5543;51.734;8.744;2022-07-23T09:34:01;24.20;96.70
10980;DHT22;5543;51.734;8.744;2022-07-23T09:36:33;24.80;97.20
10980;DHT22;5543;51.734;8.744;2022-07-23T09:39:03;25.10;97.20
10980;DHT22;5543;51.734;8.744;2022-07-23T09:41:36;24.90;96.10
10980;DHT22;5543;51.734;8.744;2022-07-23T09:44:14;24.50;96.70
10980;DHT22;5543;51.734;8.744;2022-07-23T09:46:43;24.80;96.80
10980;DHT22;5543;51.734;8.744;2022-07-23T09:49:22;25.50;94.50
10980;DHT22;5543;51.734;8.744;2022-07-23T09:51:52;26.30;95.00
10980;DHT22;5543;51.734;8.744;2022-07-23T09:54:24;27.00;91.90
10980;DHT22;5543;51.734;8.744;2022-07-23T09:56:54;27.40;88.20
10980;DHT22;5543;51.734;8.744;2022-07-23T09:59:25;27.70;89.80
10980;DHT22;5543;51.734;8.744;2022-07-23T10:01:55;28.10;83.40
10980;DHT22;5543;51.734;8.744;2022-07-23T10:04:24;28.40;82.90
10980;DHT22;5543;51.734;8.744;2022-07-23T10:06:54;28.30;84.60
10980;DHT22;5543;51.734;8.744;2022-07-23T10:09:26;27.90;80.50
10980;DHT22;5543;51.734;8.744;2022-07-23T10:11:56;27.70;85.10
10980;DHT22;5543;51.734;8.744;2022-07-23T10:14:45;27.10;84.60
10980;DHT22;5543;51.734;8.744;2022-07-23T10:17:12;26.50;87.10
10980;DHT22;5543;51.734;8.744;2022-07-23T10:19:40;25.70;86.20
10980;DHT22;5543;51.734;8.744;2022-07-23T10:22:10;25.00;90.20
10980;DHT22;5543;51.734;8.744;2022-07-23T10:24:53;24.90;90.80
10980;DHT22;5543;51.734;8.744;2022-07-23T10:27:55;24.70;90.00
10980;DHT22;5543;51.734;8.744;2022-07-23T10:30:33;24.40;91.00
10980;DHT22;5543;51.734;8.744;2022-07-23T10:33:15;24.30;92.20
10980;DHT22;5543;51.734;8.744;2022-07-23T10:35:50;25.20;91.60
10980;DHT22;5543;51.734;8.744;2022-07-23T10:38:24;26.50;91.20
10980;DHT22;5543;51.734;8.744;2022-07-23T10:40:57;27.40;85.70
10980;DHT22;5543;51.734;8.744;2022-07-23T10:43:25;27.70;82.00
10980;DHT22;5543;51.734;8.744;2022-07-23T10:46:21;27.50;81.20
10980;DHT22;5543;51.734;8.744;2022-07-23T10:49:20;26.90;82.10
10980;DHT22;5543;51.734;8.744;2022-07-23T10:52:18;26.80;85.20
10980;DHT22;5543;51.734;8.744;2022-07-23T10:54:47;27.60;80.40
10980;DHT22;5543;51.734;8.744;2022-07-23T10:57:19;28.20;80.20
10980;DHT22;5543;51.734;8.744;2022-07-23T11:00:17;27.70;81.20
10980;DHT22;5543;51.734;8.744;2022-07-23T11:02:49;27.00;81.80
10980;DHT22;5543;51.734;8.744;2022-07-23T11:05:19;26.40;86.10
10980;DHT22;5543;51.734;8.744;2022-07-23T11:08:12;26.80;85.60
10980;DHT22;5543;51.734;8.744;2022-07-23T11:10:46;27.80;83.60
10980;DHT22;5543;51.734;8.744;2022-07-23T11:13:43;28.60;76.50
10980;DHT22;5543;51.734;8.744;2022-07-23T11:16:23;29.70;75.60
10980;DHT22;5543;51.734;8.744;2022-07-23T11:19:10;30.10;75.10
10980;DHT22;5543;51.734;8.744;2022-07-23T11:21:45;30.30;70.00
10980;DHT22;5543;51.734;8.744;2022-07-23T11:24:16;29.80;69.60
10980;DHT22;5543;51.734;8.744;2022-07-23T11:26:50;29.60;73.70
10980;DHT22;5543;51.734;8.744;2022-07-23T11:29:42;30.20;71.50
10980;DHT22;5543;51.734;8.744;2022-07-23T11:32:47;30.80;70.30
10980;DHT22;5543;51.734;8.744;2022-07-23T11:35:25;31.50;69.30
10980;DHT22;5543;51.734;8.744;2022-07-23T11:38:03;31.70;68.10
10980;DHT22;5543;51.734;8.744;2022-07-23T11:40:31;31.80;65.70
10980;DHT22;5543;51.734;8.744;2022-07-23T11:43:01;31.70;66.70
10980;DHT22;5543;51.734;8.744;2022-07-23T11:45:36;32.10;62.80
10980;DHT22;5543;51.734;8.744;2022-07-23T11:48:07;31.60;61.80
10980;DHT22;5543;51.734;8.744;2022-07-23T11:50:36;31.70;67.30
10980;DHT22;5543;51.734;8.744;2022-07-23T11:53:04;32.20;66.00
10980;DHT22;5543;51.734;8.744;2022-07-23T11:55:32;31.90;59.10
10980;DHT22;5543;51.734;8.744;2022-07-23T11:58:00;32.20;62.20
10980;DHT22;5543;51.734;8.744;2022-07-23T12:00:32;32.70;62.40
10980;DHT22;5543;51.734;8.744;2022-07-23T12:03:08;32.70;60.90
10980;DHT22;5543;51.734;8.744;2022-07-23T12:05:37;33.20;59.80
10980;DHT22;5543;51.734;8.744;2022-07-23T12:08:07;33.40;56.90
10980;DHT22;5543;51.734;8.744;2022-07-23T12:10:37;33.50;59.10
10980;DHT22;5543;51.734;8.744;2022-07-23T12:13:08;33.50;60.00
10980;DHT22;5543;51.734;8.744;2022-07-23T12:15:39;33.70;55.60
10980;DHT22;5543;51.734;8.744;2022-07-23T12:18:11;33.70;55.40
10980;DHT22;5543;51.734;8.744;2022-07-23T12:20:41;33.60;56.70
10980;DHT22;5543;51.734;8.744;2022-07-23T12:23:11;33.60;56.90
10980;DHT22;5543;51.734;8.744;2022-07-23T12:25:48;33.60;58.20
10980;DHT22;5543;51.734;8.744;2022-07-23T12:28:18;33.70;56.00
10980;DHT22;5543;51.734;8.744;2022-07-23T12:30:48;33.20;54.40
10980;DHT22;5543;51.734;8.744;2022-07-23T12:33:24;33.00;56.20
10980;DHT22;5543;51.734;8.744;2022-07-23T12:35:54;32.80;57.90
10980;DHT22;5543;51.734;8.744;2022-07-23T12:38:25;32.40;55.30
10980;DHT22;5543;51.734;8.744;2022-07-23T12:40:55;32.40;56.10
10980;DHT22;5543;51.734;8.744;2022-07-23T12:43:24;32.30;59.20
10980;DHT22;5543;51.734;8.744;2022-07-23T12:45:54;32.50;57.20
10980;DHT22;5543;51.734;8.744;2022-07-23T12:48:26;32.50;56.50
10980;DHT22;5543;51.734;8.744;2022-07-23T12:50:59;32.50;55.80
10980;DHT22;5543;51.734;8.744;2022-07-23T12:53:29;32.40;58.70
10980;DHT22;5543;51.734;8.744;2022-07-23T12:56:04;32.00;58.10
10980;DHT22;5543;51.734;8.744;2022-07-23T12:58:45;32.00;56.30
10980;DHT22;5543;51.734;8.744;2022-07-23T13:01:25;32.30;55.70
10980;DHT22;5543;51.734;8.744;2022-07-23T13:04:02;31.80;55.80
10980;DHT22;5543;51.734;8.744;2022-07-23T13:06:40;32.00;60.60
10980;DHT22;5543;51.734;8.744;2022-07-23T13:09:10;32.20;55.80
10980;DHT22;5543;51.734;8.744;2022-07-23T13:11:39;32.60;57.50
10980;DHT22;5543;51.734;8.744;2022-07-23T13:14:09;32.60;58.00
10980;DHT22;5543;51.734;8.744;2022-07-23T13:16:38;33.10;56.50
10980;DHT22;5543;51.734;8.744;2022-07-23T13:19:09;33.30;56.60
10980;DHT22;5543;51.734;8.744;2022-07-23T13:21:39;33.50;55.00
10980;DHT22;5543;51.734;8.744;2022-07-23T13:24:08;33.60;55.30
10980;DHT22;5543;51.734;8.744;2022-07-23T13:26:37;32.90;56.10
10980;DHT22;5543;51.734;8.744;2022-07-23T13:29:06;32.90;56.60
10980;DHT22;5543;51.734;8.744;2022-07-23T13:31:37;32.60;55.90
10980;DHT22;5543;51.734;8.744;2022-07-23T13:34:07;32.90;55.80
10980;DHT22;5543;51.734;8.744;2022-07-23T13:36:37;33.10;56.10
10980;DHT22;5543;51.734;8.744;2022-07-23T13:39:05;33.20;55.70
10980;DHT22;5543;51.734;8.744;2022-07-23T13:41:36;33.40;56.80
10980;DHT22;5543;51.734;8.744;2022-07-23T13:44:05;33.80;53.00
10980;DHT22;5543;51.734;8.744;2022-07-23T13:46:34;33.60;53.20
10980;DHT22;5543;51.734;8.744;2022-07-23T13:49:03;33.30;53.40
10980;DHT22;5543;51.734;8.744;2022-07-23T13:51:34;32.60;55.00
10980;DHT22;5543;51.734;8.744;2022-07-23T13:54:03;32.00;53.70
10980;DHT22;5543;51.734;8.744;2022-07-23T13:56:35;31.50;54.60
10980;DHT22;5543;51.734;8.744;2022-07-23T13:59:03;31.30;57.20
10980;DHT22;5543;51.734;8.744;2022-07-23T14:01:33;31.00;56.90
10980;DHT22;5543;51.734;8.744;2022-07-23T14:04:16;30.80;57.90
10980;DHT22;5543;51.734;8.744;2022-07-23T14:06:46;30.80;60.60
10980;DHT22;5543;51.734;8.744;2022-07-23T14:09:19;30.90;60.40
10980;DHT22;5543;51.734;8.744;2022-07-23T14:11:47;31.20;60.00
10980;DHT22;5543;51.734;8.744;2022-07-23T14:14:17;31.40;59.20
10980;DHT22;5543;51.734;8.744;2022-07-23T14:16:45;31.70;57.70
10980;DHT22;5543;51.734;8.744;2022-07-23T14:19:14;31.60;55.00
10980;DHT22;5543;51.734;8.744;2022-07-23T14:21:42;31.70;57.20
10980;DHT22;5543;51.734;8.744;2022-07-23T14:24:12;31.70;57.60
10980;DHT22;5543;51.734;8.744;2022-07-23T14:26:40;31.60;57.20
10980;DHT22;5543;51.734;8.744;2022-07-23T14:29:09;31.40;54.10
10980;DHT22;5543;51.734;8.744;2022-07-23T14:31:38;31.20;55.90
10980;DHT22;5543;51.734;8.744;2022-07-23T14:34:06;31.00;55.60
10980;DHT22;5543;51.734;8.744;2022-07-23T14:36:34;30.70;58.00
10980;DHT22;5543;51.734;8.744;2022-07-23T14:39:05;30.60;57.50
10980;DHT22;5543;51.734;8.744;2022-07-23T14:41:36;30.30;56.20
10980;DHT22;5543;51.734;8.744;2022-07-23T14:44:05;30.20;58.00
10980;DHT22;5543;51.734;8.744;2022-07-23T14:46:36;30.10;57.40
10980;DHT22;5543;51.734;8.744;2022-07-23T14:49:04;30.20;56.60
10980;DHT22;5543;51.734;8.744;2022-07-23T14:51:34;30.10;58.00
10980;DHT22;5543;51.734;8.744;2022-07-23T14:54:03;29.90;58.00
10980;DHT22;5543;51.734;8.744;2022-07-23T14:56:32;29.70;57.80
10980;DHT22;5543;51.734;8.744;2022-07-23T14:59:03;29.70;58.20
10980;DHT22;5543;51.734;8.744;2022-07-23T15:01:32;29.70;58.90
10980;DHT22;5543;51.734;8.744;2022-07-23T15:04:01;29.70;58.90
10980;DHT22;5543;51.734;8.744;2022-07-23T15:06:49;29.60;60.00
10980;DHT22;5543;51.734;8.744;2022-07-23T15:09:17;29.60;58.60
10980;DHT22;5543;51.734;8.744;2022-07-23T15:11:45;29.60;57.30
10980;DHT22;5543;51.734;8.744;2022-07-23T15:14:15;29.30;60.20
10980;DHT22;5543;51.734;8.744;2022-07-23T15:16:55;29.30;58.70
10980;DHT22;5543;51.734;8.744;2022-07-23T15:19:23;29.10;59.80
10980;DHT22;5543;51.734;8.744;2022-07-23T15:21:51;29.00;60.10
10980;DHT22;5543;51.734;8.744;2022-07-23T15:24:19;28.80;59.50
10980;DHT22;5543;51.734;8.744;2022-07-23T15:26:47;28.90;62.40
10980;DHT22;5543;51.734;8.744;2022-07-23T15:29:17;28.90;61.10
10980;DHT22;5543;51.734;8.744;2022-07-23T15:31:47;29.00;59.60
10980;DHT22;5543;51.734;8.744;2022-07-23T15:34:22;29.00;59.60
10980;DHT22;5543;51.734;8.744;2022-07-23T15:36:50;29.10;59.80
10980;DHT22;5543;51.734;8.744;2022-07-23T15:39:19;29.00;59.10
10980;DHT22;5543;51.734;8.744;2022-07-23T15:41:47;28.90;57.30
10980;DHT22;5543;51.734;8.744;2022-07-23T15:44:16;28.90;60.40
10980;DHT22;5543;51.734;8.744;2022-07-23T15:46:55;28.80;62.80
10980;DHT22;5543;51.734;8.744;2022-07-23T15:49:25;28.80;61.30
10980;DHT22;5543;51.734;8.744;2022-07-23T15:51:54;28.80;59.80
10980;DHT22;5543;51.734;8.744;2022-07-23T15:54:24;28.70;60.70
10980;DHT22;5543;51.734;8.744;2022-07-23T15:56:53;28.70;61.50
10980;DHT22;5543;51.734;8.744;2022-07-23T15:59:23;28.70;59.90
10980;DHT22;5543;51.734;8.744;2022-07-23T16:01:56;28.50;63.40
10980;DHT22;5543;51.734;8.744;2022-07-23T16:04:24;28.50;62.20
10980;DHT22;5543;51.734;8.744;2022-07-23T16:06:52;28.60;62.50